createdAt,value
2022-10-08T00:00:37.876Z,21.9
2022-10-08T00:02:21.284Z,21.9
2022-10-08T00:04:04.663Z,21.9
2022-10-08T00:05:48.039Z,21.9
2022-10-08T00:07:31.491Z,21.9
2022-10-08T00:09:14.879Z,21.9
2022-10-08T00:10:58.243Z,21.9
2022-10-08T00:12:42.053Z,21.9
2022-10-08T00:14:25.477Z,21.9
2022-10-08T00:16:08.737Z,21.9
2022-10-08T00:17:52.137Z,21.9
2022-10-08T00:19:35.580Z,21.9
2022-10-08T00:21:18.911Z,21.9
2022-10-08T00:23:02.324Z,21.9
2022-10-08T00:24:45.765Z,21.9
2022-10-08T00:29:55.071Z,21.9
2022-10-08T00:31:38.363Z,21.9
2022-10-08T00:33:21.779Z,21.9
2022-10-08T00:35:05.148Z,21.9
2022-10-08T00:36:48.549Z,21.9
2022-10-08T00:38:31.975Z,21.9
2022-10-08T00:40:15.333Z,21.9
2022-10-08T00:41:58.752Z,21.9
2022-10-08T00:47:08.001Z,21.9
2022-10-08T00:48:51.424Z,21.9
2022-10-08T00:50:34.773Z,21.9
2022-10-08T00:52:18.185Z,21.9
2022-10-08T00:54:01.619Z,21.9
2022-10-08T00:55:44.952Z,21.9
2022-10-08T00:57:28.389Z,21.9
2022-10-08T00:59:11.755Z,21.9
2022-10-08T01:04:20.981Z,21.9
2022-10-08T01:06:04.424Z,21.9
2022-10-08T01:07:47.826Z,21.9
2022-10-08T01:09:31.181Z,21.9
2022-10-08T01:11:14.590Z,21.9
2022-10-08T01:12:57.968Z,21.9
2022-10-08T01:14:41.364Z,21.9
2022-10-08T01:16:24.798Z,21.8
2022-10-08T01:19:51.241Z,21.8
2022-10-08T01:21:34.637Z,21.8
2022-10-08T01:23:18.171Z,21.8
2022-10-08T01:25:01.439Z,21.8
2022-10-08T01:26:44.836Z,21.8
2022-10-08T01:28:28.277Z,21.8
2022-10-08T01:30:11.597Z,21.8
2022-10-08T01:31:55.115Z,21.8
2022-10-08T01:35:21.481Z,21.8
2022-10-08T01:37:04.915Z,21.8
2022-10-08T01:38:48.326Z,21.8
2022-10-08T01:40:31.680Z,21.8
2022-10-08T01:42:15.085Z,21.8
2022-10-08T01:43:58.466Z,21.8
2022-10-08T01:45:41.852Z,21.8
2022-10-08T01:47:25.287Z,21.8
2022-10-08T01:49:08.651Z,21.8
2022-10-08T01:50:52.370Z,21.8
2022-10-08T01:52:35.827Z,21.8
2022-10-08T01:54:19.190Z,21.8
2022-10-08T01:56:02.631Z,21.8
2022-10-08T01:57:45.936Z,21.8
2022-10-08T01:59:29.370Z,21.8
2022-10-08T02:01:12.728Z,21.8
2022-10-08T02:02:56.137Z,21.8
2022-10-08T02:04:39.510Z,21.8
2022-10-08T02:08:06.020Z,21.8
2022-10-08T02:09:49.419Z,21.8
2022-10-08T02:11:32.790Z,21.8
2022-10-08T02:13:16.200Z,21.8
2022-10-08T02:14:59.632Z,21.8
2022-10-08T02:16:42.977Z,21.8
2022-10-08T02:18:26.455Z,21.8
2022-10-08T02:20:09.822Z,21.8
2022-10-08T02:21:53.167Z,21.8
2022-10-08T02:25:19.693Z,21.8
2022-10-08T02:28:46.436Z,21.8
2022-10-08T02:30:29.863Z,21.8
2022-10-08T02:32:13.220Z,21.8
2022-10-08T02:33:56.629Z,21.8
2022-10-08T02:35:40.009Z,21.8
2022-10-08T02:37:23.456Z,21.8
2022-10-08T02:42:32.659Z,21.8
2022-10-08T02:44:16.074Z,21.8
2022-10-08T02:45:59.434Z,21.8
2022-10-08T02:47:42.840Z,21.8
2022-10-08T02:49:26.278Z,21.8
2022-10-08T02:51:09.642Z,21.8
2022-10-08T02:52:53.078Z,21.8
2022-10-08T02:59:45.726Z,21.8
2022-10-08T03:01:29.063Z,21.8
2022-10-08T03:03:12.521Z,21.8
2022-10-08T03:04:55.845Z,21.8
2022-10-08T03:06:39.254Z,21.8
2022-10-08T03:08:22.684Z,21.8
2022-10-08T03:10:06.040Z,21.8
2022-10-08T03:11:49.444Z,21.8
2022-10-08T03:15:16.001Z,21.8
2022-10-08T03:16:59.297Z,21.8
2022-10-08T03:18:42.731Z,21.8
2022-10-08T03:20:26.094Z,21.8
2022-10-08T03:22:09.501Z,21.8
2022-10-08T03:23:52.935Z,21.8
2022-10-08T03:25:36.291Z,21.8
2022-10-08T03:27:19.699Z,21.8
2022-10-08T03:29:03.135Z,21.8
2022-10-08T03:30:46.821Z,21.8
2022-10-08T03:32:30.186Z,21.8
2022-10-08T03:34:13.586Z,21.8
2022-10-08T03:35:57.021Z,21.8
2022-10-08T03:37:40.375Z,21.8
2022-10-08T03:39:23.780Z,21.8
2022-10-08T03:41:07.159Z,21.8
2022-10-08T03:42:50.571Z,21.8
2022-10-08T03:47:59.803Z,21.8
2022-10-08T03:49:43.231Z,21.8
2022-10-08T03:51:26.599Z,21.8
2022-10-08T03:53:09.986Z,21.8
2022-10-08T03:54:53.454Z,21.8
2022-10-08T03:56:36.779Z,21.8
2022-10-08T03:58:20.187Z,21.8
2022-10-08T04:00:03.652Z,21.8
2022-10-08T04:03:30.053Z,21.8
2022-10-08T04:05:13.472Z,21.8
2022-10-08T04:06:56.834Z,21.8
2022-10-08T04:08:40.234Z,21.8
2022-10-08T04:10:23.672Z,21.8
2022-10-08T04:12:07.015Z,21.8
2022-10-08T04:13:50.439Z,21.8
2022-10-08T04:15:33.811Z,21.8
2022-10-08T04:19:00.288Z,21.8
2022-10-08T04:20:43.718Z,21.8
2022-10-08T04:22:27.072Z,21.8
2022-10-08T04:24:10.478Z,21.8
2022-10-08T04:25:53.937Z,21.8
2022-10-08T04:27:37.267Z,21.8
2022-10-08T04:29:20.689Z,21.8
2022-10-08T04:31:04.132Z,21.8
2022-10-08T04:36:13.462Z,21.8
2022-10-08T04:37:56.708Z,21.8
2022-10-08T04:39:40.177Z,21.8
2022-10-08T04:41:23.517Z,21.8
2022-10-08T04:43:06.889Z,21.8
2022-10-08T04:44:50.353Z,21.8
2022-10-08T04:46:33.681Z,21.8
2022-10-08T04:48:17.096Z,21.8
2022-10-08T04:53:26.347Z,21.8
2022-10-08T04:55:09.773Z,21.8
2022-10-08T04:56:53.119Z,21.7
2022-10-08T04:58:36.537Z,21.7
2022-10-08T05:00:19.929Z,21.8
2022-10-08T05:02:03.309Z,21.8
2022-10-08T05:03:46.739Z,21.7
2022-10-08T05:05:30.102Z,21.8
2022-10-08T05:10:39.326Z,21.7
2022-10-08T05:12:22.751Z,21.7
2022-10-08T05:14:06.191Z,21.7
2022-10-08T05:15:49.512Z,21.7
2022-10-08T05:17:32.978Z,21.7
2022-10-08T05:19:16.305Z,21.7
2022-10-08T05:20:59.705Z,21.7
2022-10-08T05:22:43.150Z,21.7
2022-10-08T05:26:09.575Z,21.7
2022-10-08T05:27:52.992Z,21.7
2022-10-08T05:29:36.496Z,21.7
2022-10-08T05:31:19.763Z,21.7
2022-10-08T05:33:03.193Z,21.7
2022-10-08T05:34:46.559Z,21.7
2022-10-08T05:36:29.987Z,21.7
2022-10-08T05:38:13.395Z,21.7
2022-10-08T05:41:39.816Z,21.7
2022-10-08T05:43:23.298Z,21.7
2022-10-08T05:45:06.616Z,21.7
2022-10-08T05:46:50.010Z,21.7
2022-10-08T05:48:33.438Z,21.7
2022-10-08T05:50:16.816Z,21.7
2022-10-08T05:52:00.206Z,21.7
2022-10-08T05:53:43.643Z,21.7
2022-10-08T05:57:10.105Z,21.7
2022-10-08T05:58:53.483Z,21.7
2022-10-08T06:00:36.866Z,21.7
2022-10-08T06:02:20.253Z,21.7
2022-10-08T06:04:03.690Z,21.7
2022-10-08T06:05:47.056Z,21.7
2022-10-08T06:07:30.448Z,21.7
2022-10-08T06:09:13.884Z,21.7
2022-10-08T06:12:40.413Z,21.7
2022-10-08T06:14:23.747Z,21.7
2022-10-08T06:16:07.087Z,21.7
2022-10-08T06:17:50.573Z,21.7
2022-10-08T06:19:33.962Z,21.7
2022-10-08T06:21:17.277Z,21.7
2022-10-08T06:23:00.701Z,21.7
2022-10-08T06:24:44.076Z,21.7
2022-10-08T06:28:10.571Z,21.7
2022-10-08T06:29:53.982Z,21.7
2022-10-08T06:31:37.350Z,21.7
2022-10-08T06:33:20.774Z,21.7
2022-10-08T06:35:04.235Z,21.7
2022-10-08T06:36:47.576Z,21.7
2022-10-08T06:38:30.942Z,21.7
2022-10-08T06:40:14.391Z,21.7
2022-10-08T06:45:23.562Z,21.7
2022-10-08T06:47:06.967Z,21.7
2022-10-08T06:48:50.393Z,21.7
2022-10-08T06:50:33.752Z,21.7
2022-10-08T06:52:17.163Z,21.7
2022-10-08T06:54:00.639Z,21.7
2022-10-08T06:55:43.987Z,21.7
2022-10-08T06:57:27.363Z,21.7
2022-10-08T07:00:53.877Z,21.7
2022-10-08T07:02:37.283Z,21.7
2022-10-08T07:04:20.771Z,21.7
2022-10-08T07:06:04.050Z,21.7
2022-10-08T07:07:47.481Z,21.7
2022-10-08T07:09:30.844Z,21.7
2022-10-08T07:11:14.186Z,21.7
2022-10-08T07:12:57.599Z,21.7
2022-10-08T07:16:24.056Z,21.7
2022-10-08T07:18:07.460Z,21.7
2022-10-08T07:19:50.881Z,21.7
2022-10-08T07:21:34.298Z,21.7
2022-10-08T07:23:17.667Z,21.7
2022-10-08T07:25:01.160Z,21.8
2022-10-08T07:26:44.433Z,21.8
2022-10-08T07:28:27.850Z,21.8
2022-10-08T07:30:11.548Z,21.8
2022-10-08T07:31:54.968Z,21.8
2022-10-08T07:33:38.320Z,21.8
2022-10-08T07:35:21.762Z,21.8
2022-10-08T07:37:05.178Z,21.9
2022-10-08T07:38:48.538Z,21.9
2022-10-08T07:40:31.933Z,21.9
2022-10-08T07:42:15.315Z,22
2022-10-08T07:45:41.803Z,22
2022-10-08T07:47:25.270Z,22
2022-10-08T07:49:08.564Z,22
2022-10-08T07:50:51.984Z,22
2022-10-08T07:52:35.453Z,22
2022-10-08T07:54:18.798Z,22
2022-10-08T07:56:02.207Z,22
2022-10-08T07:57:45.550Z,22
2022-10-08T08:01:12.071Z,22.1
2022-10-08T08:02:55.590Z,22.1
2022-10-08T08:04:38.813Z,22.1
2022-10-08T08:06:22.257Z,22.1
2022-10-08T08:08:05.665Z,22.1
2022-10-08T08:09:49.003Z,22.1
2022-10-08T08:11:32.443Z,22.1
2022-10-08T08:13:15.856Z,22.1
2022-10-08T08:16:42.293Z,22.1
2022-10-08T08:18:25.751Z,22.1
2022-10-08T08:20:09.060Z,22.2
2022-10-08T08:21:52.548Z,22.2
2022-10-08T08:23:35.911Z,22.2
2022-10-08T08:25:19.261Z,22.2
2022-10-08T08:27:02.698Z,22.2
2022-10-08T08:28:46.068Z,22.2
2022-10-08T08:30:29.802Z,22.2
2022-10-08T08:32:13.168Z,22.2
2022-10-08T08:33:56.580Z,22.2
2022-10-08T08:35:39.932Z,22.2
2022-10-08T08:37:23.356Z,22.2
2022-10-08T08:39:06.803Z,22.2
2022-10-08T08:40:50.225Z,22.1
2022-10-08T08:42:33.536Z,22.1
2022-10-08T08:47:42.765Z,22.1
2022-10-08T08:49:26.212Z,22.1
2022-10-08T08:51:09.581Z,22.1
2022-10-08T08:52:53.003Z,22.2
2022-10-08T08:54:36.368Z,22.2
2022-10-08T08:56:19.742Z,22.2
2022-10-08T08:58:03.207Z,22.2
2022-10-08T08:59:46.531Z,22.2
2022-10-08T09:03:13.018Z,22.2
2022-10-08T09:04:56.468Z,22.2
2022-10-08T09:06:39.798Z,22.2
2022-10-08T09:08:23.279Z,22.2
2022-10-08T09:10:06.580Z,22.2
2022-10-08T09:11:49.996Z,22.2
2022-10-08T09:13:33.454Z,22.2
2022-10-08T09:15:16.799Z,22.2
2022-10-08T09:18:43.258Z,22.2
2022-10-08T09:20:26.695Z,22.2
2022-10-08T09:22:10.046Z,22.2
2022-10-08T09:23:53.543Z,22.2
2022-10-08T09:25:36.846Z,22.2
2022-10-08T09:27:20.229Z,22.2
2022-10-08T09:29:03.670Z,22.2
2022-10-08T09:30:47.154Z,22.2
2022-10-08T09:35:56.329Z,22.2
2022-10-08T09:37:39.667Z,22.3
2022-10-08T09:39:23.107Z,22.3
2022-10-08T09:41:06.483Z,22.3
2022-10-08T09:42:49.914Z,22.3
2022-10-08T09:44:33.240Z,22.3
2022-10-08T09:46:16.683Z,22.3
2022-10-08T09:48:00.074Z,22.3
2022-10-08T09:51:26.502Z,22.3
2022-10-08T09:53:09.920Z,22.3
2022-10-08T09:54:53.358Z,22.3
2022-10-08T09:56:36.710Z,22.3
2022-10-08T09:58:20.112Z,22.3
2022-10-08T10:00:03.491Z,22.3
2022-10-08T10:01:46.910Z,22.3
2022-10-08T10:03:30.325Z,22.3
2022-10-08T10:05:14.007Z,22.3
2022-10-08T10:06:57.378Z,22.3
2022-10-08T10:08:40.801Z,22.3
2022-10-08T10:10:24.221Z,22.3
2022-10-08T10:12:07.574Z,22.3
2022-10-08T10:13:51.009Z,22.3
2022-10-08T10:15:34.500Z,22.3
2022-10-08T10:17:17.769Z,22.3
2022-10-08T10:22:27.012Z,22.3
2022-10-08T10:24:10.429Z,22.3
2022-10-08T10:25:53.849Z,22.4
2022-10-08T10:27:37.264Z,22.4
2022-10-08T10:29:20.609Z,22.4
2022-10-08T10:31:03.977Z,22.4
2022-10-08T10:32:47.480Z,22.4
2022-10-08T10:34:30.873Z,22.4
2022-10-08T10:39:40.054Z,22.4
2022-10-08T10:41:23.451Z,22.5
2022-10-08T10:43:06.836Z,22.5
2022-10-08T10:44:50.261Z,22.5
2022-10-08T10:46:33.625Z,22.5
2022-10-08T10:48:17.023Z,22.5
2022-10-08T10:50:00.395Z,22.5
2022-10-08T10:51:43.794Z,22.5
2022-10-08T10:55:10.307Z,22.5
2022-10-08T10:56:53.717Z,22.5
2022-10-08T10:58:37.082Z,22.5
2022-10-08T11:00:20.515Z,22.5
2022-10-08T11:02:03.856Z,22.5
2022-10-08T11:03:47.269Z,22.5
2022-10-08T11:05:30.642Z,22.5
2022-10-08T11:07:14.041Z,22.5
2022-10-08T11:12:23.291Z,22.5
2022-10-08T11:14:06.718Z,22.6
2022-10-08T11:15:50.089Z,22.6
2022-10-08T11:17:33.509Z,22.6
2022-10-08T11:19:16.953Z,22.6
2022-10-08T11:21:00.291Z,22.5
2022-10-08T11:22:43.840Z,22.6
2022-10-08T11:24:27.270Z,22.6
2022-10-08T11:29:36.423Z,22.6
2022-10-08T11:31:19.711Z,22.6
2022-10-08T11:33:03.151Z,22.6
2022-10-08T11:34:46.592Z,22.6
2022-10-08T11:36:29.950Z,22.6
2022-10-08T11:38:13.399Z,22.6
2022-10-08T11:39:56.677Z,22.6
2022-10-08T11:41:40.088Z,22.6
2022-10-08T11:46:49.333Z,22.6
2022-10-08T11:48:32.860Z,22.7
2022-10-08T11:50:16.164Z,22.7
2022-10-08T11:51:59.580Z,22.7
2022-10-08T11:53:42.888Z,22.7
2022-10-08T11:55:26.305Z,22.7
2022-10-08T11:57:09.730Z,22.7
2022-10-08T11:58:53.095Z,22.7
2022-10-08T12:02:19.575Z,22.7
2022-10-08T12:04:03.015Z,22.7
2022-10-08T12:05:46.369Z,22.7
2022-10-08T12:07:29.791Z,22.7
2022-10-08T12:09:13.176Z,22.7
2022-10-08T12:10:56.636Z,22.7
2022-10-08T12:12:40.109Z,22.7
2022-10-08T12:14:23.434Z,22.7
2022-10-08T12:19:32.581Z,22.7
2022-10-08T12:21:15.986Z,22.7
2022-10-08T12:22:59.542Z,22.7
2022-10-08T12:24:42.799Z,22.7
2022-10-08T12:26:26.188Z,22.7
2022-10-08T12:28:09.576Z,22.7
2022-10-08T12:29:52.955Z,22.7
2022-10-08T12:31:36.387Z,22.7
2022-10-08T12:35:02.829Z,22.7
2022-10-08T12:36:46.302Z,22.7
2022-10-08T12:38:29.645Z,22.8
2022-10-08T12:40:13.026Z,22.8
2022-10-08T12:41:56.444Z,22.8
2022-10-08T12:43:39.811Z,22.8
2022-10-08T12:45:23.198Z,22.8
2022-10-08T12:47:06.669Z,22.9
2022-10-08T12:50:33.084Z,22.8
2022-10-08T12:52:16.485Z,22.8
2022-10-08T12:53:59.921Z,22.8
2022-10-08T12:55:43.263Z,22.8
2022-10-08T12:57:26.682Z,22.8
2022-10-08T12:59:10.051Z,22.8
2022-10-08T13:00:53.465Z,22.8
2022-10-08T13:02:36.905Z,22.8
2022-10-08T13:06:03.355Z,22.8
2022-10-08T13:07:46.727Z,22.8
2022-10-08T13:09:30.121Z,22.8
2022-10-08T13:11:13.493Z,22.8
2022-10-08T13:12:56.933Z,22.8
2022-10-08T13:14:40.349Z,22.8
2022-10-08T13:16:23.689Z,22.8
2022-10-08T13:18:07.185Z,22.7
2022-10-08T13:23:16.377Z,22.7
2022-10-08T13:24:59.712Z,22.7
2022-10-08T13:26:43.222Z,22.7
2022-10-08T13:28:26.538Z,22.7
2022-10-08T13:30:09.908Z,22.7
2022-10-08T13:31:53.361Z,22.6
2022-10-08T13:33:36.764Z,22.6
2022-10-08T13:35:20.102Z,22.6
2022-10-08T13:40:29.350Z,22.6
2022-10-08T13:42:12.785Z,22.6
2022-10-08T13:43:56.168Z,22.6
2022-10-08T13:45:39.545Z,22.6
2022-10-08T13:47:22.917Z,22.6
2022-10-08T13:49:06.400Z,22.6
2022-10-08T13:50:49.748Z,22.6
2022-10-08T13:52:33.120Z,22.6
2022-10-08T13:57:42.509Z,22.6
2022-10-08T13:59:25.766Z,22.6
2022-10-08T14:01:09.195Z,22.6
2022-10-08T14:02:52.539Z,22.5
2022-10-08T14:04:35.994Z,22.5
2022-10-08T14:06:19.394Z,22.5
2022-10-08T14:08:02.735Z,22.5
2022-10-08T14:09:46.242Z,22.5
2022-10-08T14:13:12.604Z,22.5
2022-10-08T14:14:56.012Z,22.5
2022-10-08T14:16:39.443Z,22.5
2022-10-08T14:18:22.885Z,22.5
2022-10-08T14:20:06.204Z,22.5
2022-10-08T14:21:49.651Z,22.5
2022-10-08T14:23:32.980Z,22.6
2022-10-08T14:25:16.485Z,22.6
2022-10-08T14:26:59.785Z,22.6
2022-10-08T14:30:26.264Z,22.6
2022-10-08T14:32:09.736Z,22.5
2022-10-08T14:33:53.043Z,22.5
2022-10-08T14:35:36.448Z,22.6
2022-10-08T14:37:19.833Z,22.6
2022-10-08T14:39:03.221Z,22.6
2022-10-08T14:40:46.673Z,22.6
2022-10-08T14:42:30.017Z,22.6
2022-10-08T14:45:56.502Z,22.6
2022-10-08T14:47:39.968Z,22.6
2022-10-08T14:49:23.293Z,22.6
2022-10-08T14:51:06.701Z,22.6
2022-10-08T14:52:50.072Z,22.6
2022-10-08T14:54:33.500Z,22.6
2022-10-08T14:56:16.905Z,22.6
2022-10-08T14:58:00.269Z,22.6
2022-10-08T15:03:09.634Z,22.6
2022-10-08T15:04:52.904Z,22.6
2022-10-08T15:06:36.377Z,22.6
2022-10-08T15:08:19.717Z,22.6
2022-10-08T15:10:03.111Z,22.6
2022-10-08T15:11:46.583Z,22.7
2022-10-08T15:13:29.979Z,22.7
2022-10-08T15:15:13.310Z,22.7
2022-10-08T15:20:22.561Z,22.7
2022-10-08T15:22:05.924Z,22.7
2022-10-08T15:23:49.332Z,22.7
2022-10-08T15:25:32.778Z,22.7
2022-10-08T15:27:16.105Z,22.7
2022-10-08T15:28:59.543Z,22.6
2022-10-08T15:30:42.984Z,22.6
2022-10-08T15:32:26.382Z,22.6
2022-10-08T15:37:35.549Z,22.6
2022-10-08T15:39:18.972Z,22.6
2022-10-08T15:41:02.367Z,22.6
2022-10-08T15:42:45.729Z,22.6
2022-10-08T15:44:29.237Z,22.6
2022-10-08T15:46:12.521Z,22.6
2022-10-08T15:47:55.924Z,22.6
2022-10-08T15:49:39.458Z,22.6
2022-10-08T15:51:23.094Z,22.6
2022-10-08T15:53:06.406Z,22.6
2022-10-08T15:54:49.867Z,22.6
2022-10-08T15:56:33.272Z,22.6
2022-10-08T15:58:16.595Z,22.6
2022-10-08T16:00:00.053Z,22.6
2022-10-08T16:01:43.453Z,22.5
2022-10-08T16:03:26.805Z,22.5
2022-10-08T16:06:53.345Z,22.5
2022-10-08T16:08:36.663Z,22.5
2022-10-08T16:10:20.055Z,22.5
2022-10-08T16:12:03.497Z,22.5
2022-10-08T16:13:46.852Z,22.5
2022-10-08T16:15:30.257Z,22.5
2022-10-08T16:17:13.790Z,22.5
2022-10-08T16:18:57.115Z,22.5
2022-10-08T16:24:06.322Z,22.5
2022-10-08T16:25:49.706Z,22.5
2022-10-08T16:27:33.182Z,22.5
2022-10-08T16:29:16.483Z,22.4
2022-10-08T16:30:59.906Z,22.5
2022-10-08T16:32:43.366Z,22.4
2022-10-08T16:34:26.718Z,22.4
2022-10-08T16:36:10.151Z,22.4
2022-10-08T16:39:36.514Z,22.4
2022-10-08T16:41:19.957Z,22.4
2022-10-08T16:43:03.315Z,22.4
2022-10-08T16:44:46.725Z,22.4
2022-10-08T16:46:30.153Z,22.4
2022-10-08T16:48:13.521Z,22.4
2022-10-08T16:49:56.917Z,22.4
2022-10-08T16:51:40.293Z,22.3
2022-10-08T16:56:49.608Z,22.3
2022-10-08T16:58:32.962Z,22.3
2022-10-08T17:00:16.358Z,22.3
2022-10-08T17:01:59.742Z,22.3
2022-10-08T17:03:43.146Z,22.3
2022-10-08T17:05:26.567Z,22.3
2022-10-08T17:07:09.978Z,22.3
2022-10-08T17:08:53.320Z,22.3
2022-10-08T17:12:19.789Z,22.3
2022-10-08T17:14:03.227Z,22.3
2022-10-08T17:15:46.616Z,22.3
2022-10-08T17:17:29.974Z,22.3
2022-10-08T17:19:13.366Z,22.3
2022-10-08T17:20:56.821Z,22.2
2022-10-08T17:22:40.253Z,22.2
2022-10-08T17:24:23.645Z,22.2
2022-10-08T17:27:50.032Z,22.2
2022-10-08T17:29:33.415Z,22.2
2022-10-08T17:31:16.854Z,22.2
2022-10-08T17:33:00.221Z,22.2
2022-10-08T17:34:43.618Z,22.2
2022-10-08T17:36:27.079Z,22.2
2022-10-08T17:38:10.407Z,22.2
2022-10-08T17:39:53.817Z,22.2
2022-10-08T17:45:03.063Z,22.2
2022-10-08T17:46:46.493Z,22.2
2022-10-08T17:48:29.833Z,22.2
2022-10-08T17:50:13.266Z,22.2
2022-10-08T17:51:56.633Z,22.2
2022-10-08T17:53:40.036Z,22.2
2022-10-08T17:55:23.466Z,22.2
2022-10-08T17:57:06.845Z,22.2
2022-10-08T17:58:50.223Z,22.2
2022-10-08T18:00:33.932Z,22.2
2022-10-08T18:02:17.351Z,22.1
2022-10-08T18:04:00.726Z,22.2
2022-10-08T18:05:44.111Z,22.2
2022-10-08T18:07:27.553Z,22.1
2022-10-08T18:09:10.897Z,22.1
2022-10-08T18:10:54.317Z,22.1
2022-10-08T18:12:37.761Z,22.1
2022-10-08T18:14:21.146Z,22.1
2022-10-08T18:17:47.601Z,22.1
2022-10-08T18:19:30.959Z,22.1
2022-10-08T18:21:14.404Z,22.1
2022-10-08T18:22:57.813Z,22.1
2022-10-08T18:24:41.159Z,22.1
2022-10-08T18:26:24.616Z,22.1
2022-10-08T18:28:07.933Z,22.1
2022-10-08T18:29:51.345Z,22.1
2022-10-08T18:31:34.811Z,22.1
2022-10-08T18:35:01.229Z,22.1
2022-10-08T18:36:44.603Z,22.1
2022-10-08T18:38:28.043Z,22.1
2022-10-08T18:40:11.443Z,22.2
2022-10-08T18:41:54.811Z,22.2
2022-10-08T18:43:38.277Z,22.2
2022-10-08T18:45:21.572Z,22.2
2022-10-08T18:47:05.007Z,22.2
2022-10-08T18:48:48.375Z,22.2
2022-10-08T18:52:14.853Z,22.2
2022-10-08T18:53:58.308Z,22.2
2022-10-08T18:55:41.658Z,22.2
2022-10-08T18:57:25.175Z,22.2
2022-10-08T18:59:08.538Z,22.2
2022-10-08T19:00:51.817Z,22.2
2022-10-08T19:02:35.346Z,22.2
2022-10-08T19:04:18.679Z,22.2
2022-10-08T19:09:27.889Z,22.2
2022-10-08T19:11:11.263Z,22.2
2022-10-08T19:12:54.839Z,22.2
2022-10-08T19:14:38.109Z,22.2
2022-10-08T19:16:21.573Z,22.2
2022-10-08T19:18:04.831Z,22.2
2022-10-08T19:19:48.228Z,22.2
2022-10-08T19:21:31.667Z,22.2
2022-10-08T19:26:40.987Z,22.2
2022-10-08T19:28:24.269Z,22.2
2022-10-08T19:30:07.677Z,22.2
2022-10-08T19:31:51.147Z,22.2
2022-10-08T19:33:34.469Z,22.2
2022-10-08T19:35:17.907Z,22.2
2022-10-08T19:37:01.329Z,22.2
2022-10-08T19:38:44.672Z,22.2
2022-10-08T19:40:28.077Z,22.2
2022-10-08T19:43:54.511Z,22.2
2022-10-08T19:45:37.963Z,22.2
2022-10-08T19:47:21.359Z,22.2
2022-10-08T19:49:04.722Z,22.2
2022-10-08T19:50:48.123Z,22.2
2022-10-08T19:52:31.492Z,22.2
2022-10-08T19:54:14.938Z,22.2
2022-10-08T19:55:58.319Z,22.2
2022-10-08T19:59:24.774Z,22.2
2022-10-08T20:01:08.186Z,22.2
2022-10-08T20:02:51.670Z,22.2
2022-10-08T20:04:34.931Z,22.2
2022-10-08T20:06:18.376Z,22.2
2022-10-08T20:08:01.747Z,22.2
2022-10-08T20:09:45.152Z,22.2
2022-10-08T20:11:28.570Z,22.2
2022-10-08T20:13:11.915Z,22.2
2022-10-08T20:16:38.421Z,22.2
2022-10-08T20:18:21.851Z,22.2
2022-10-08T20:20:05.195Z,22.2
2022-10-08T20:21:48.619Z,22.2
2022-10-08T20:23:31.972Z,22.2
2022-10-08T20:25:15.380Z,22.2
2022-10-08T20:26:58.835Z,22.2
2022-10-08T20:28:42.174Z,22.2
2022-10-08T20:30:25.600Z,22.2
2022-10-08T20:33:52.063Z,22.2
2022-10-08T20:35:35.484Z,22.2
2022-10-08T20:37:18.875Z,22.2
2022-10-08T20:39:02.252Z,22.2
2022-10-08T20:40:45.619Z,22.2
2022-10-08T20:42:29.079Z,22.2
2022-10-08T20:44:12.408Z,22.2
2022-10-08T20:45:55.824Z,22.2
2022-10-08T20:47:39.228Z,22.2
2022-10-08T20:49:22.987Z,22.2
2022-10-08T20:51:06.307Z,22.2
2022-10-08T20:52:49.712Z,22.2
2022-10-08T20:54:33.148Z,22.2
2022-10-08T20:56:16.514Z,22.2
2022-10-08T20:57:59.924Z,22.2
2022-10-08T20:59:43.297Z,22.2
2022-10-08T21:01:26.779Z,22.2
2022-10-08T21:03:10.109Z,22.2
2022-10-08T21:06:36.543Z,22.2
2022-10-08T21:08:19.956Z,22.2
2022-10-08T21:10:03.344Z,22.2
2022-10-08T21:11:46.742Z,22.2
2022-10-08T21:13:30.162Z,22.2
2022-10-08T21:15:13.552Z,22.2
2022-10-08T21:16:56.990Z,22.2
2022-10-08T21:18:40.365Z,22.2
2022-10-08T21:23:49.668Z,22.2
2022-10-08T21:25:32.952Z,22.2
2022-10-08T21:27:16.364Z,22.2
2022-10-08T21:28:59.805Z,22.2
2022-10-08T21:30:43.148Z,22.2
2022-10-08T21:32:26.617Z,22.2
2022-10-08T21:34:10.003Z,22.2
2022-10-08T21:35:53.341Z,22.2
2022-10-08T21:37:36.779Z,22.2
2022-10-08T21:41:03.208Z,22.2
2022-10-08T21:42:46.610Z,22.2
2022-10-08T21:44:30.077Z,22.2
2022-10-08T21:46:13.387Z,22.2
2022-10-08T21:47:56.812Z,22.2
2022-10-08T21:49:40.235Z,22.2
2022-10-08T21:51:23.593Z,22.2
2022-10-08T21:53:07.085Z,22.2
2022-10-08T21:58:16.259Z,22.2
2022-10-08T21:59:59.617Z,22.2
2022-10-08T22:01:43.022Z,22.2
2022-10-08T22:03:26.460Z,22.2
2022-10-08T22:05:09.803Z,22.2
2022-10-08T22:06:53.230Z,22.2
2022-10-08T22:08:36.603Z,22.2
2022-10-08T22:10:19.995Z,22.2
2022-10-08T22:15:29.234Z,22.2
2022-10-08T22:17:12.697Z,22.1
2022-10-08T22:18:56.052Z,22.1
2022-10-08T22:20:39.441Z,22.1
2022-10-08T22:22:22.883Z,22.1
2022-10-08T22:24:06.280Z,22.1
2022-10-08T22:25:49.633Z,22.1
2022-10-08T22:27:32.998Z,22.1
2022-10-08T22:32:42.422Z,22.1
2022-10-08T22:34:25.649Z,22.1
2022-10-08T22:36:09.170Z,22.1
2022-10-08T22:37:52.448Z,22.1
2022-10-08T22:39:35.841Z,22.1
2022-10-08T22:41:19.283Z,22.1
2022-10-08T22:43:02.681Z,22.1
2022-10-08T22:44:46.085Z,22.1
2022-10-08T22:48:12.487Z,22.1
2022-10-08T22:49:55.909Z,22.1
2022-10-08T22:51:39.360Z,22.1
2022-10-08T22:53:22.731Z,22.1
2022-10-08T22:55:06.142Z,22.1
2022-10-08T22:56:49.525Z,22.1
2022-10-08T22:58:32.868Z,22.1
2022-10-08T23:00:16.361Z,22.1
2022-10-08T23:05:25.532Z,22.1
2022-10-08T23:07:09.000Z,22.1
2022-10-08T23:08:52.337Z,22.1
2022-10-08T23:10:35.767Z,22.1
2022-10-08T23:12:19.108Z,22
2022-10-08T23:14:02.620Z,22
2022-10-08T23:15:45.966Z,22
2022-10-08T23:17:29.296Z,22
2022-10-08T23:22:38.654Z,22
2022-10-08T23:24:22.026Z,22
2022-10-08T23:26:05.355Z,22
2022-10-08T23:27:48.704Z,22
2022-10-08T23:29:32.167Z,22
2022-10-08T23:31:15.497Z,22
2022-10-08T23:32:58.905Z,22
2022-10-08T23:34:42.443Z,22
2022-10-08T23:39:51.584Z,22
2022-10-08T23:41:34.922Z,22
2022-10-08T23:43:18.368Z,22
2022-10-08T23:45:01.720Z,22
2022-10-08T23:46:45.124Z,22
2022-10-08T23:48:28.605Z,22
2022-10-08T23:50:11.917Z,22
2022-10-08T23:51:55.314Z,22
2022-10-08T23:57:04.564Z,22
2022-10-08T23:58:47.998Z,22
